Time;durP1;ratioP1;P1;durP2;ratioP2;P2;SDS_P1;SDS_P2;PMS_P1;PMS_P2;Temp;Humidity;BMP_temperature;BMP_pressure;BME280_temperature;BME280_humidity;BME280_pressure;Samples;Min_cycle;Max_cycle;Signal;HPM_P1;HPM_P2
2023/12/03 00:00:05;;;;;;;23.05;9.18;;;-0.10;99.90;;;;;;4998562;28;20026;-63
2023/12/03 00:02:31;;;;;;;19.50;8.20;;;-0.10;99.90;;;;;;4981714;28;20108;-63
2023/12/03 00:04:58;;;;;;;20.70;9.48;;;0.00;99.90;;;;;;4980669;28;20026;-63
2023/12/03 00:07:24;;;;;;;23.02;9.23;;;0.00;99.90;;;;;;4998032;28;20030;-63
2023/12/03 00:09:50;;;;;;;22.58;9.18;;;0.00;99.90;;;;;;4981101;28;20026;-63
2023/12/03 00:12:15;;;;;;;27.27;9.98;;;0.00;99.90;;;;;;4980768;28;20018;-63
2023/12/03 00:14:41;;;;;;;23.42;9.63;;;0.00;99.90;;;;;;4980648;28;20057;-63
2023/12/03 00:17:07;;;;;;;25.08;9.75;;;0.10;99.90;;;;;;4980945;28;20026;-63
2023/12/03 00:19:33;;;;;;;23.95;9.63;;;0.10;99.90;;;;;;4980843;28;20118;-63
2023/12/03 00:21:59;;;;;;;21.10;8.70;;;0.10;99.90;;;;;;4997550;28;20105;-63
2023/12/03 00:24:24;;;;;;;20.02;10.20;;;0.10;99.90;;;;;;4997873;28;20058;-63
2023/12/03 00:26:50;;;;;;;21.33;8.80;;;0.10;99.90;;;;;;4980617;28;20050;-63
2023/12/03 00:29:15;;;;;;;21.08;8.32;;;0.00;99.90;;;;;;4980555;28;20031;-63
2023/12/03 00:31:41;;;;;;;19.75;8.50;;;-0.10;99.90;;;;;;4997650;28;20031;-63
2023/12/03 00:34:06;;;;;;;20.45;8.73;;;-0.10;99.90;;;;;;4980375;28;20031;-64
2023/12/03 00:36:32;;;;;;;24.27;9.32;;;-0.10;99.90;;;;;;4981105;28;20027;-64
2023/12/03 00:38:58;;;;;;;24.20;9.45;;;-0.20;99.90;;;;;;4981094;28;20022;-63
2023/12/03 00:41:24;;;;;;;20.67;8.55;;;-0.10;99.90;;;;;;4979856;28;20081;-63
2023/12/03 00:43:50;;;;;;;22.02;8.32;;;-0.20;99.90;;;;;;4997854;28;20032;-64
2023/12/03 00:46:22;;;;;;;20.83;8.57;;;-0.10;99.90;;;;;;4980251;28;20050;-63
2023/12/03 00:48:47;;;;;;;;;;;-0.20;99.90;;;;;;4980987;28;20026;-64
2023/12/03 00:51:14;;;;;;;23.95;8.98;;;-0.30;99.90;;;;;;4980449;28;19905;-63
2023/12/03 00:53:40;;;;;;;20.38;8.88;;;-0.40;99.90;;;;;;4980498;28;20019;-64
2023/12/03 00:56:06;;;;;;;21.65;8.40;;;-0.20;99.90;;;;;;4980408;28;20026;-64
2023/12/03 00:58:32;;;;;;;17.77;7.90;;;-0.20;99.90;;;;;;4981065;28;20030;-64
2023/12/03 01:00:57;;;;;;;18.60;7.95;;;-0.10;99.90;;;;;;4980211;28;20026;-63
2023/12/03 01:03:23;;;;;;;24.67;7.70;;;-0.20;99.90;;;;;;4980608;28;20120;-63
2023/12/03 01:05:49;;;;;;;18.88;7.28;;;-0.20;99.90;;;;;;4980343;28;20054;-63
2023/12/03 01:08:14;;;;;;;21.85;8.70;;;-0.10;99.90;;;;;;4997219;28;20034;-64
2023/12/03 01:10:40;;;;;;;17.70;8.43;;;-0.20;99.90;;;;;;4997497;28;20031;-63
2023/12/03 01:13:06;;;;;;;22.08;8.02;;;-0.20;99.90;;;;;;4997361;28;20022;-63
2023/12/03 01:15:31;;;;;;;23.70;8.43;;;-0.30;99.90;;;;;;4980115;28;20026;-63
2023/12/03 01:17:57;;;;;;;17.70;7.97;;;-0.50;99.90;;;;;;4980444;28;20054;-63
2023/12/03 01:20:22;;;;;;;23.40;8.73;;;-0.60;99.90;;;;;;4980296;28;20030;-63
2023/12/03 01:22:48;;;;;;;24.85;9.15;;;-0.60;99.90;;;;;;4980087;28;20081;-63
2023/12/03 01:25:13;;;;;;;20.63;8.35;;;-0.60;99.90;;;;;;4980098;28;20117;-63
2023/12/03 01:27:39;;;;;;;18.45;8.05;;;-0.50;99.90;;;;;;4981093;28;20023;-63
2023/12/03 01:30:05;;;;;;;23.63;9.13;;;-0.60;99.90;;;;;;4980295;28;20026;-63
2023/12/03 01:32:31;;;;;;;17.40;7.45;;;-0.60;99.90;;;;;;4980664;28;20026;-63
2023/12/03 01:34:56;;;;;;;22.02;9.48;;;-0.60;99.90;;;;;;4980135;28;20126;-63
2023/12/03 01:37:22;;;;;;;24.98;8.70;;;-0.50;99.90;;;;;;4980801;28;20165;-63
2023/12/03 01:39:47;;;;;;;23.65;9.15;;;-0.60;99.90;;;;;;4980172;28;20034;-64
2023/12/03 01:42:13;;;;;;;21.55;9.18;;;-0.60;99.90;;;;;;4980301;28;20029;-63
2023/12/03 01:44:38;;;;;;;19.77;7.60;;;-0.50;99.90;;;;;;4979980;28;20065;-63
2023/12/03 01:47:04;;;;;;;17.98;7.72;;;-0.50;99.90;;;;;;4980084;28;20086;-63
2023/12/03 01:49:31;;;;;;;24.00;9.48;;;-0.40;99.90;;;;;;4979771;28;20109;-63
2023/12/03 01:51:57;;;;;;;20.05;8.10;;;-0.30;99.90;;;;;;4982186;28;20022;-63
2023/12/03 01:54:27;;;;;;;21.25;9.20;;;-0.20;99.90;;;;;;4983184;28;20030;-63
2023/12/03 01:56:53;;;;;;;19.70;8.07;;;-0.30;99.90;;;;;;5000584;28;20026;-63
2023/12/03 01:59:20;;;;;;;21.27;8.68;;;-0.30;99.90;;;;;;4983058;28;20054;-63
2023/12/03 02:01:45;;;;;;;18.25;7.43;;;-0.30;99.90;;;;;;4983802;28;20034;-63
2023/12/03 02:04:11;;;;;;;21.00;9.02;;;-0.20;99.90;;;;;;4983284;28;20037;-63
2023/12/03 02:06:36;;;;;;;20.50;8.95;;;-0.20;99.90;;;;;;4983223;28;20064;-63
2023/12/03 02:09:02;;;;;;;17.48;7.53;;;-0.10;99.90;;;;;;4983505;28;20117;-63
2023/12/03 02:11:27;;;;;;;20.65;8.07;;;0.00;99.90;;;;;;4983957;28;20105;-64
2023/12/03 02:13:53;;;;;;;21.77;8.35;;;0.10;99.90;;;;;;4982818;28;20018;-63
2023/12/03 02:16:19;;;;;;;21.05;8.85;;;0.10;99.90;;;;;;4982801;28;20022;-63
2023/12/03 02:18:44;;;;;;;19.95;8.13;;;0.20;99.90;;;;;;4982667;28;20038;-63
2023/12/03 02:21:10;;;;;;;20.10;9.40;;;0.20;99.90;;;;;;4983161;28;20025;-63
2023/12/03 02:23:35;;;;;;;21.48;8.85;;;0.20;99.90;;;;;;4982681;28;20025;-63
2023/12/03 02:26:02;;;;;;;19.00;8.65;;;0.20;99.90;;;;;;4982916;28;20033;-63
2023/12/03 02:28:27;;;;;;;23.15;9.10;;;0.30;99.90;;;;;;4982842;28;20018;-64
2023/12/03 02:30:53;;;;;;;21.02;8.30;;;0.40;99.90;;;;;;4982948;28;20022;-64
2023/12/03 02:33:18;;;;;;;22.45;9.93;;;0.30;99.90;;;;;;4982818;28;20046;-64
2023/12/03 02:35:44;;;;;;;21.92;8.40;;;0.30;99.90;;;;;;4982202;28;20073;-63
2023/12/03 02:38:09;;;;;;;23.45;8.93;;;0.10;99.90;;;;;;4982830;28;20081;-63
2023/12/03 02:40:37;;;;;;;22.90;8.40;;;0.10;99.90;;;;;;4982333;28;20026;-63
2023/12/03 02:43:02;;;;;;;27.13;10.35;;;0.30;99.90;;;;;;4982798;28;20033;-64
2023/12/03 02:45:28;;;;;;;24.45;9.07;;;0.30;99.90;;;;;;4982699;28;20113;-64
2023/12/03 02:47:54;;;;;;;24.58;9.88;;;0.30;99.90;;;;;;4983429;28;20090;-63
2023/12/03 02:50:19;;;;;;;22.15;8.73;;;0.30;99.90;;;;;;4982309;28;20022;-63
2023/12/03 02:52:45;;;;;;;20.77;8.23;;;0.40;99.90;;;;;;4982731;28;20034;-63
2023/12/03 02:55:10;;;;;;;21.73;9.07;;;0.30;99.90;;;;;;4982564;28;20176;-63
2023/12/03 02:57:36;;;;;;;21.67;8.68;;;0.30;99.90;;;;;;4982452;28;20113;-63
2023/12/03 03:00:06;;;;;;;23.10;9.23;;;0.20;99.90;;;;;;4981926;28;20027;-64
2023/12/03 03:02:35;;;;;;;25.02;10.07;;;0.40;99.90;;;;;;4981692;28;20161;-63
2023/12/03 03:05:01;;;;;;;23.52;9.05;;;0.30;99.90;;;;;;4982450;28;20029;-64
2023/12/03 03:07:27;;;;;;;26.02;10.60;;;0.40;99.90;;;;;;4982579;28;20026;-63
2023/12/03 03:09:53;;;;;;;30.80;10.80;;;0.30;99.90;;;;;;4982905;28;20141;-64
2023/12/03 03:12:18;;;;;;;27.38;9.18;;;0.20;99.90;;;;;;4981725;28;20019;-64
2023/12/03 03:14:44;;;;;;;25.90;9.13;;;0.10;99.90;;;;;;4981737;28;20022;-64
2023/12/03 03:17:09;;;;;;;27.30;10.57;;;0.00;99.90;;;;;;4982549;28;20073;-63
2023/12/03 03:19:35;;;;;;;27.38;10.68;;;0.10;99.90;;;;;;4982654;28;20041;-63
2023/12/03 03:22:02;;;;;;;27.33;10.13;;;0.20;99.90;;;;;;4966285;28;20093;-63
2023/12/03 03:24:27;;;;;;;23.73;8.90;;;0.10;99.90;;;;;;4982161;28;20046;-64
2023/12/03 03:26:53;;;;;;;27.38;10.38;;;0.10;99.90;;;;;;4982438;28;20030;-63
2023/12/03 03:29:18;;;;;;;21.15;9.90;;;0.10;99.90;;;;;;4981588;28;20081;-64
2023/12/03 03:31:44;;;;;;;22.90;9.18;;;0.20;99.90;;;;;;4981688;28;20019;-64
2023/12/03 03:34:10;;;;;;;24.20;8.80;;;0.20;99.90;;;;;;4981879;28;20032;-64
2023/12/03 03:36:35;;;;;;;24.08;10.00;;;0.20;99.90;;;;;;4982297;28;20030;-64
2023/12/03 03:39:01;;;;;;;23.88;10.23;;;0.20;99.90;;;;;;4981768;28;20022;-64
2023/12/03 03:41:27;;;;;;;22.80;9.00;;;0.10;99.90;;;;;;4981302;28;20066;-63
2023/12/03 03:43:52;;;;;;;21.10;8.40;;;0.20;99.90;;;;;;4981638;28;20018;-63
2023/12/03 03:46:18;;;;;;;23.58;10.40;;;0.40;99.90;;;;;;4981260;28;20036;-63
2023/12/03 03:48:44;;;;;;;22.02;9.48;;;0.40;99.90;;;;;;4981183;28;20050;-64
2023/12/03 03:51:09;;;;;;;24.25;10.30;;;0.50;99.90;;;;;;4981532;28;20022;-64
2023/12/03 03:53:35;;;;;;;22.05;8.73;;;0.60;99.90;;;;;;4981952;28;20030;-64
2023/12/03 03:56:08;;;;;;;19.55;8.45;;;0.70;99.90;;;;;;4981309;28;20023;-64
2023/12/03 03:58:35;;;;;;;24.90;9.73;;;0.80;99.90;;;;;;4981789;28;20121;-64
2023/12/03 04:01:04;;;;;;;21.92;8.98;;;0.70;99.90;;;;;;4981031;28;20027;-64
2023/12/03 04:03:29;;;;;;;22.20;8.90;;;0.60;99.90;;;;;;4981728;28;20098;-64
2023/12/03 04:05:55;;;;;;;22.92;9.50;;;0.60;99.90;;;;;;4980912;28;20161;-64
2023/12/03 04:08:20;;;;;;;29.30;10.25;;;0.50;99.90;;;;;;4980840;28;20070;-63
2023/12/03 04:10:46;;;;;;;22.00;8.85;;;0.50;99.90;;;;;;4981101;28;20030;-63
2023/12/03 04:13:12;;;;;;;23.60;9.23;;;0.40;99.90;;;;;;4981320;28;20025;-64
2023/12/03 04:15:37;;;;;;;17.67;8.73;;;0.60;99.90;;;;;;4980608;28;20022;-64
2023/12/03 04:18:03;;;;;;;26.58;9.57;;;0.60;99.90;;;;;;4981008;28;20034;-63
2023/12/03 04:20:28;;;;;;;22.33;9.52;;;0.50;99.90;;;;;;4980960;28;20073;-64
2023/12/03 04:22:54;;;;;;;21.02;9.93;;;0.50;99.90;;;;;;4980914;28;20077;-63
2023/12/03 04:25:19;;;;;;;19.98;8.38;;;0.40;99.90;;;;;;4980947;28;20037;-63
2023/12/03 04:27:45;;;;;;;23.05;9.18;;;0.40;99.90;;;;;;4981778;28;20069;-63
2023/12/03 04:30:11;;;;;;;23.55;8.82;;;0.30;99.90;;;;;;4980828;28;20022;-64
2023/12/03 04:32:36;;;;;;;23.48;9.38;;;0.50;99.90;;;;;;4980862;28;20052;-64
2023/12/03 04:35:02;;;;;;;23.55;9.02;;;0.40;99.90;;;;;;4980349;28;20117;-64
2023/12/03 04:37:28;;;;;;;22.85;9.55;;;0.40;99.90;;;;;;4997837;28;20054;-63
2023/12/03 04:39:53;;;;;;;25.25;8.50;;;0.30;99.90;;;;;;4981462;28;20030;-64
2023/12/03 04:42:19;;;;;;;30.40;10.38;;;0.40;99.90;;;;;;4981257;28;20064;-63
2023/12/03 04:44:44;;;;;;;24.13;9.52;;;0.40;99.90;;;;;;4980504;28;20096;-64
2023/12/03 04:47:13;;;;;;;20.50;9.10;;;0.30;99.90;;;;;;4980450;28;20073;-63
2023/12/03 04:49:39;;;;;;;19.17;9.10;;;0.30;99.90;;;;;;4980417;28;20050;-63
2023/12/03 04:52:05;;;;;;;22.15;9.70;;;0.10;99.90;;;;;;4980625;28;20018;-63
2023/12/03 04:54:30;;;;;;;21.88;9.15;;;0.10;99.90;;;;;;4981241;28;20135;-63
2023/12/03 04:56:56;;;;;;;23.52;9.95;;;0.10;99.90;;;;;;4980852;28;20022;-64
2023/12/03 04:59:21;;;;;;;22.23;8.82;;;0.30;99.90;;;;;;4980427;28;20033;-64
2023/12/03 05:01:47;;;;;;;22.13;8.52;;;0.50;99.90;;;;;;4980293;28;20053;-64
2023/12/03 05:04:12;;;;;;;26.15;9.73;;;0.60;99.90;;;;;;4980527;28;20034;-64
2023/12/03 05:06:38;;;;;;;24.08;9.10;;;0.60;99.90;;;;;;4980383;28;20018;-64
2023/12/03 05:09:03;;;;;;;20.77;8.60;;;0.50;99.90;;;;;;4980706;28;20034;-64
2023/12/03 05:11:29;;;;;;;23.55;9.65;;;0.40;99.90;;;;;;4980445;28;20019;-63
2023/12/03 05:13:54;;;;;;;23.55;8.68;;;0.20;99.90;;;;;;4980992;28;20081;-63
2023/12/03 05:16:20;;;;;;;30.83;9.68;;;0.00;99.90;;;;;;4980270;28;20030;-63
2023/12/03 05:18:45;;;;;;;22.08;9.98;;;0.00;99.90;;;;;;4981252;28;20141;-64
2023/12/03 05:21:11;;;;;;;21.63;9.27;;;0.20;99.90;;;;;;4980373;28;20026;-63
2023/12/03 05:23:36;;;;;;;22.13;8.93;;;0.20;99.90;;;;;;4980244;28;20026;-63
2023/12/03 05:26:02;;;;;;;19.88;8.63;;;0.30;99.90;;;;;;4980787;28;20043;-64
2023/12/03 05:28:27;;;;;;;24.15;10.30;;;0.30;99.90;;;;;;4984879;28;20072;-64
2023/12/03 05:30:53;;;;;;;25.95;9.50;;;0.40;99.90;;;;;;4984224;28;20018;-63
2023/12/03 05:33:18;;;;;;;22.45;9.00;;;0.30;99.90;;;;;;4984002;28;20042;-64
2023/12/03 05:35:44;;;;;;;22.83;9.18;;;0.40;99.90;;;;;;4984097;28;20041;-64
2023/12/03 05:38:10;;;;;;;23.30;10.13;;;0.40;99.90;;;;;;4983933;28;20082;-64
2023/12/03 05:40:35;;;;;;;20.42;8.38;;;0.40;99.90;;;;;;4984408;28;20121;-64
2023/12/03 05:43:01;;;;;;;19.58;8.50;;;0.30;99.90;;;;;;4983523;28;20029;-64
2023/12/03 05:45:27;;;;;;;22.95;10.15;;;0.40;99.90;;;;;;4984278;28;20117;-63
2023/12/03 05:47:53;;;;;;;21.05;9.63;;;0.40;99.90;;;;;;4984312;28;20118;-64
2023/12/03 05:50:18;;;;;;;24.70;10.00;;;0.50;99.90;;;;;;4983346;28;20018;-64
2023/12/03 05:52:44;;;;;;;23.15;10.35;;;0.40;99.90;;;;;;4983339;28;20022;-63
2023/12/03 05:55:09;;;;;;;22.67;9.43;;;0.30;99.90;;;;;;4983957;28;20027;-63
2023/12/03 05:57:35;;;;;;;25.27;10.02;;;0.20;99.90;;;;;;4984050;28;20120;-63
2023/12/03 06:00:02;;;;;;;30.75;10.27;;;0.00;99.90;;;;;;4983434;28;20053;-63
2023/12/03 06:02:27;;;;;;;24.73;9.27;;;-0.30;99.90;;;;;;4983539;28;20026;-63
2023/12/03 06:04:53;;;;;;;24.63;9.40;;;-0.30;99.90;;;;;;4983350;28;20035;-63
2023/12/03 06:07:19;;;;;;;21.90;8.93;;;-0.30;99.90;;;;;;4983894;28;20024;-64
2023/12/03 06:09:44;;;;;;;23.67;8.95;;;-0.20;99.90;;;;;;4983117;28;20045;-63
2023/12/03 06:12:10;;;;;;;25.77;10.45;;;-0.40;99.90;;;;;;4983220;28;20037;-63
2023/12/03 06:14:35;;;;;;;26.33;10.20;;;-0.40;99.90;;;;;;4982998;28;20037;-63
2023/12/03 06:17:01;;;;;;;22.13;9.48;;;-0.40;99.90;;;;;;4983034;28;20077;-63
2023/12/03 06:19:27;;;;;;;21.63;9.20;;;-0.30;99.90;;;;;;4983039;28;20022;-63
2023/12/03 06:21:52;;;;;;;22.10;9.05;;;-0.60;99.90;;;;;;4983065;28;20069;-63
2023/12/03 06:24:18;;;;;;;26.05;9.43;;;-0.50;99.90;;;;;;4982737;28;20033;-63
2023/12/03 06:26:44;;;;;;;20.20;8.65;;;-0.50;99.90;;;;;;4982926;28;20026;-63
2023/12/03 06:29:09;;;;;;;22.77;9.98;;;-0.50;99.90;;;;;;4983052;28;20023;-65
2023/12/03 06:31:35;;;;;;;19.90;8.40;;;-0.60;99.90;;;;;;4982839;28;20105;-63
2023/12/03 06:34:01;;;;;;;22.25;8.95;;;-0.60;99.90;;;;;;4982735;28;20034;-63
2023/12/03 06:36:26;;;;;;;24.80;9.98;;;-0.60;99.90;;;;;;4982653;28;20022;-63
2023/12/03 06:38:53;;;;;;;20.30;9.55;;;-0.70;99.90;;;;;;4981424;28;20026;-63
2023/12/03 06:41:18;;;;;;;22.85;9.73;;;-0.70;99.90;;;;;;4982611;28;20030;-64
2023/12/03 06:43:44;;;;;;;23.33;9.45;;;-0.50;99.90;;;;;;4982586;28;20030;-64
2023/12/03 06:46:09;;;;;;;25.70;10.27;;;-0.40;99.90;;;;;;4983057;28;20033;-63
2023/12/03 06:48:35;;;;;;;23.13;9.35;;;-0.40;99.90;;;;;;4982719;28;20029;-63
2023/12/03 06:51:01;;;;;;;28.20;9.77;;;-0.40;99.90;;;;;;4982202;28;20018;-63
2023/12/03 06:53:26;;;;;;;21.75;9.70;;;-0.30;99.90;;;;;;4982459;28;20023;-64
2023/12/03 06:55:52;;;;;;;22.75;9.63;;;-0.20;99.90;;;;;;4982521;28;20104;-64
2023/12/03 06:58:17;;;;;;;26.38;9.35;;;-0.20;99.90;;;;;;4982541;28;20086;-63
2023/12/03 07:00:43;;;;;;;22.92;9.75;;;-0.30;99.90;;;;;;4981944;28;20026;-65
2023/12/03 07:03:08;;;;;;;26.30;8.93;;;-0.20;99.90;;;;;;4982315;28;20038;-64
2023/12/03 07:05:34;;;;;;;27.13;10.32;;;-0.10;99.90;;;;;;4981809;28;20129;-63
2023/12/03 07:08:00;;;;;;;26.73;10.10;;;-0.40;99.90;;;;;;4982321;28;20023;-64
2023/12/03 07:10:25;;;;;;;23.17;9.50;;;-0.60;99.90;;;;;;4982165;28;20110;-63
2023/12/03 07:12:51;;;;;;;26.48;10.70;;;-0.50;99.90;;;;;;4982136;28;20022;-63
2023/12/03 07:15:18;;;;;;;27.52;10.07;;;-0.40;99.90;;;;;;4981750;28;20026;-64
2023/12/03 07:17:44;;;;;;;28.88;10.77;;;-0.40;99.90;;;;;;4981726;28;20033;-63
2023/12/03 07:20:10;;;;;;;24.88;10.20;;;-0.40;99.90;;;;;;4981792;28;20034;-64
2023/12/03 07:22:35;;;;;;;31.08;11.10;;;-0.20;99.90;;;;;;4981696;28;20117;-63
2023/12/03 07:25:02;;;;;;;25.65;9.73;;;-0.20;99.90;;;;;;4981510;28;20033;-63
2023/12/03 07:27:28;;;;;;;27.40;11.57;;;-0.10;99.90;;;;;;4981561;28;20065;-63
2023/12/03 07:29:57;;;;;;;25.15;10.25;;;-0.20;99.90;;;;;;4982315;28;20027;-63
2023/12/03 07:32:26;;;;;;;29.67;10.77;;;-0.40;99.90;;;;;;4981572;28;20018;-63
2023/12/03 07:34:52;;;;;;;25.08;11.07;;;-0.40;99.90;;;;;;4981249;28;20034;-63
2023/12/03 07:37:18;;;;;;;25.95;10.23;;;-0.50;99.90;;;;;;4981543;28;20049;-63
2023/12/03 07:39:44;;;;;;;27.85;10.80;;;-0.30;99.90;;;;;;4982179;28;20022;-63
2023/12/03 07:42:09;;;;;;;31.52;10.85;;;-0.20;99.90;;;;;;4982312;28;20050;-63
2023/12/03 07:44:35;;;;;;;26.58;10.18;;;0.00;99.90;;;;;;4981377;28;20038;-63
2023/12/03 07:47:01;;;;;;;26.63;10.82;;;0.20;99.90;;;;;;4981178;28;20019;-63
2023/12/03 07:49:26;;;;;;;29.88;10.45;;;0.30;99.90;;;;;;4981130;28;20087;-63
2023/12/03 07:51:52;;;;;;;30.42;11.60;;;0.30;99.90;;;;;;4981532;28;20030;-63
2023/12/03 07:54:18;;;;;;;30.00;11.20;;;0.20;99.90;;;;;;4981336;28;20026;-63
2023/12/03 07:56:44;;;;;;;27.48;10.48;;;0.20;99.90;;;;;;4982080;28;20023;-63
2023/12/03 07:59:09;;;;;;;24.30;10.57;;;0.20;99.90;;;;;;4981843;28;20022;-63
2023/12/03 08:01:36;;;;;;;23.42;10.20;;;0.40;99.90;;;;;;4981255;28;20022;-64
2023/12/03 08:04:03;;;;;;;28.58;10.45;;;0.50;99.90;;;;;;4980777;28;20057;-63
2023/12/03 08:06:29;;;;;;;29.95;10.52;;;0.50;99.90;;;;;;4981626;28;20049;-64
2023/12/03 08:08:55;;;;;;;26.75;10.35;;;0.50;99.90;;;;;;4981118;28;20019;-63
2023/12/03 08:11:21;;;;;;;34.10;11.88;;;0.30;99.90;;;;;;4980813;28;20018;-64
2023/12/03 08:13:47;;;;;;;30.25;12.15;;;0.50;99.90;;;;;;4980896;28;20022;-63
2023/12/03 08:16:12;;;;;;;29.83;12.38;;;0.10;99.90;;;;;;4980640;28;20038;-63
2023/12/03 08:18:38;;;;;;;27.15;10.95;;;0.00;99.90;;;;;;4981113;28;20033;-64
2023/12/03 08:21:04;;;;;;;24.60;10.02;;;0.10;99.90;;;;;;4980579;28;20085;-64
2023/12/03 08:23:32;;;;;;;28.65;11.35;;;0.30;99.90;;;;;;4980789;28;20088;-64
2023/12/03 08:25:58;;;;;;;29.58;11.20;;;0.50;99.90;;;;;;4981298;28;20110;-64
2023/12/03 08:28:23;;;;;;;25.95;10.00;;;0.50;99.90;;;;;;4980764;28;20023;-64
2023/12/03 08:30:49;;;;;;;28.17;11.20;;;0.40;99.90;;;;;;4980820;28;20018;-67
2023/12/03 08:33:15;;;;;;;25.00;10.35;;;0.00;99.90;;;;;;4981382;28;20018;-67
2023/12/03 08:35:41;;;;;;;32.63;12.13;;;-0.30;99.90;;;;;;4980328;28;20034;-67
2023/12/03 08:38:07;;;;;;;28.73;10.38;;;-0.40;99.90;;;;;;4980616;28;20027;-67
2023/12/03 08:40:32;;;;;;;26.38;10.13;;;-0.50;99.90;;;;;;4980779;28;20026;-67
2023/12/03 08:43:01;;;;;;;27.13;10.32;;;-0.40;99.90;;;;;;4980766;28;20038;-67
2023/12/03 08:45:27;;;;;;;29.02;11.43;;;-0.30;99.90;;;;;;4980196;28;20030;-67
2023/12/03 08:47:53;;;;;;;30.90;11.02;;;-0.20;99.90;;;;;;4980736;28;20022;-67
2023/12/03 08:50:19;;;;;;;30.90;11.52;;;-0.20;99.90;;;;;;4980464;28;20105;-67
2023/12/03 08:52:44;;;;;;;23.95;10.20;;;-0.10;99.90;;;;;;4981490;28;20022;-67
2023/12/03 08:55:10;;;;;;;27.30;10.23;;;0.10;99.90;;;;;;4980560;28;20022;-67
2023/12/03 08:57:36;;;;;;;34.30;12.52;;;0.40;99.90;;;;;;4981215;28;20053;-67
2023/12/03 09:00:04;;;;;;;25.30;10.43;;;0.40;99.90;;;;;;4981289;28;20089;-67
2023/12/03 09:02:29;;;;;;;28.77;10.45;;;0.50;99.90;;;;;;4983483;28;20022;-67
2023/12/03 09:04:55;;;;;;;30.67;10.98;;;0.50;99.90;;;;;;4984644;28;20029;-67
2023/12/03 09:07:20;;;;;;;30.27;10.88;;;0.40;99.90;;;;;;4984917;28;20026;-68
2023/12/03 09:09:47;;;;;;;24.55;9.30;;;0.50;99.90;;;;;;4985241;28;20081;-67
2023/12/03 09:12:14;;;;;;;21.42;8.35;;;0.50;99.90;;;;;;4983874;28;20023;-67
2023/12/03 09:14:39;;;;;;;20.20;8.70;;;0.80;99.90;;;;;;4983985;28;20033;-68
2023/12/03 09:17:05;;;;;;;21.55;8.23;;;0.90;99.90;;;;;;4984337;28;20023;-67
2023/12/03 09:19:30;;;;;;;22.65;8.52;;;1.00;99.90;;;;;;4984636;28;20029;-67
2023/12/03 09:21:56;;;;;;;18.33;7.93;;;0.90;99.90;;;;;;4984088;28;20027;-67
2023/12/03 09:24:22;;;;;;;28.27;8.27;;;0.90;99.90;;;;;;4984098;28;20061;-67
2023/12/03 09:26:48;;;;;;;18.92;7.88;;;0.90;99.90;;;;;;4984741;28;20022;-67
2023/12/03 09:29:14;;;;;;;30.23;8.48;;;0.70;99.90;;;;;;4983913;28;20105;-67
2023/12/03 09:31:40;;;;;;;19.85;7.40;;;0.70;99.90;;;;;;4983587;28;20062;-67
2023/12/03 09:34:06;;;;;;;18.85;7.50;;;0.70;99.90;;;;;;4983456;28;20028;-67
2023/12/03 09:36:32;;;;;;;22.75;7.60;;;0.70;99.90;;;;;;4983712;28;20026;-67
2023/12/03 09:38:58;;;;;;;18.90;6.95;;;0.60;99.90;;;;;;4983882;28;20026;-67
2023/12/03 09:41:24;;;;;;;20.52;7.60;;;0.40;99.90;;;;;;4983558;28;20030;-67
2023/12/03 09:43:58;;;;;;;22.92;8.43;;;0.50;99.90;;;;;;4983488;28;20029;-68
2023/12/03 09:46:24;;;;;;;20.92;7.45;;;0.60;99.90;;;;;;4984292;28;20032;-68
2023/12/03 09:48:52;;;;;;;21.10;7.63;;;0.70;99.90;;;;;;4983448;28;20033;-68
2023/12/03 09:51:18;;;;;;;19.27;8.95;;;0.80;99.90;;;;;;4983396;28;20022;-68
2023/12/03 09:53:46;;;;;;;21.42;8.43;;;0.90;99.90;;;;;;4983413;28;20026;-68
2023/12/03 09:56:12;;;;;;;20.23;6.68;;;1.00;99.90;;;;;;4983563;28;20073;-68
2023/12/03 09:58:39;;;;;;;17.98;7.35;;;0.90;99.90;;;;;;4983556;28;20026;-67
2023/12/03 10:01:05;;;;;;;21.77;7.40;;;0.90;99.90;;;;;;4983459;28;20029;-67
2023/12/03 10:03:31;;;;;;;20.88;6.63;;;0.90;99.90;;;;;;4983410;28;20023;-67
2023/12/03 10:05:57;;;;;;;16.42;7.50;;;0.80;99.90;;;;;;4983285;28;20029;-67
2023/12/03 10:08:22;;;;;;;17.27;7.22;;;0.70;99.90;;;;;;4983059;28;20022;-67
2023/12/03 10:10:55;;;;;;;20.85;8.02;;;0.70;99.90;;;;;;4983266;28;20018;-67
2023/12/03 10:13:21;;;;;;;19.10;7.20;;;0.70;99.90;;;;;;4983698;28;20022;-68
2023/12/03 10:15:47;;;;;;;19.38;7.32;;;0.70;99.90;;;;;;4983207;28;20089;-68
2023/12/03 10:18:12;;;;;;;19.15;7.35;;;0.80;99.90;;;;;;4982905;28;20027;-67
2023/12/03 10:20:39;;;;;;;27.13;8.77;;;0.90;99.90;;;;;;4983184;28;20062;-67
2023/12/03 10:23:16;;;;;;;17.55;6.57;;;0.90;99.90;;;;;;4983077;28;20023;-67
2023/12/03 10:25:42;;;;;;;17.75;7.10;;;0.90;99.90;;;;;;4983347;28;20026;-67
2023/12/03 10:28:09;;;;;;;21.08;7.65;;;1.00;99.90;;;;;;4983424;28;20085;-67
2023/12/03 10:30:36;;;;;;;24.05;8.02;;;1.00;99.90;;;;;;4982663;28;20026;-63
2023/12/03 10:33:04;;;;;;;19.45;6.63;;;1.10;99.90;;;;;;4983009;28;20057;-63
2023/12/03 10:35:34;;;;;;;21.77;7.75;;;1.10;99.90;;;;;;4982739;28;20034;-63
2023/12/03 10:38:00;;;;;;;19.63;7.88;;;0.90;99.90;;;;;;4983365;28;20033;-64
2023/12/03 10:40:25;;;;;;;20.67;7.95;;;0.70;99.90;;;;;;4983418;28;20026;-63
2023/12/03 10:42:51;;;;;;;18.10;6.97;;;0.60;99.90;;;;;;4982859;28;20061;-63
2023/12/03 10:45:16;;;;;;;17.35;5.90;;;0.50;99.90;;;;;;4982762;28;20092;-63
2023/12/03 10:47:43;;;;;;;23.85;7.60;;;0.50;99.90;;;;;;4982563;28;20078;-64
2023/12/03 10:50:11;;;;;;;17.27;6.30;;;0.60;99.90;;;;;;4983126;28;20042;-64
2023/12/03 10:52:39;;;;;;;29.40;8.48;;;0.70;99.90;;;;;;4982598;28;20058;-64
2023/12/03 10:55:09;;;;;;;21.20;7.97;;;0.70;99.90;;;;;;4982527;28;20030;-64
2023/12/03 10:57:52;;;;;;;19.20;7.50;;;0.80;99.90;;;;;;4982583;28;20022;-64
2023/12/03 11:00:21;;;;;;;19.85;7.40;;;0.90;99.90;;;;;;4983038;28;20122;-64
2023/12/03 11:03:04;;;;;;;20.92;7.78;;;0.90;99.90;;;;;;4982165;28;20062;-64
2023/12/03 11:05:38;;;;;;;22.38;6.97;;;0.90;99.90;;;;;;4982357;28;20116;-64
2023/12/03 11:08:04;;;;;;;23.85;8.95;;;1.00;99.90;;;;;;4982776;28;20061;-63
2023/12/03 11:10:30;;;;;;;21.80;7.97;;;0.90;99.90;;;;;;4982785;28;20081;-63
2023/12/03 11:12:57;;;;;;;22.67;7.03;;;0.90;99.90;;;;;;4982390;28;20027;-63
2023/12/03 11:15:23;;;;;;;18.35;7.20;;;0.90;99.90;;;;;;4982486;28;20035;-64
2023/12/03 11:17:51;;;;;;;17.67;7.60;;;0.90;99.90;;;;;;4981777;28;20026;-64
2023/12/03 11:20:37;;;;;;;19.70;7.18;;;1.00;99.90;;;;;;4982151;28;20052;-64
2023/12/03 11:23:37;;;;;;;17.85;6.43;;;1.10;99.90;;;;;;4981838;28;20057;-63
2023/12/03 11:26:05;;;;;;;16.83;6.43;;;1.10;99.90;;;;;;4982307;28;20033;-64
2023/12/03 11:28:31;;;;;;;17.80;6.70;;;1.20;99.90;;;;;;4981707;28;20022;-64
2023/12/03 11:30:57;;;;;;;13.85;6.32;;;1.20;99.90;;;;;;4981907;28;20029;-64
2023/12/03 11:33:23;;;;;;;17.45;6.30;;;1.20;99.90;;;;;;4981545;28;20073;-64
2023/12/03 11:35:50;;;;;;;20.88;7.22;;;1.20;99.90;;;;;;5004692;23;20104;-64
2023/12/03 11:38:22;;;;;;;18.08;6.95;;;1.30;99.90;;;;;;4998615;28;20042;-64
2023/12/03 11:40:48;;;;;;;17.95;7.25;;;1.40;99.90;;;;;;4998744;28;20038;-64
2023/12/03 11:43:26;;;;;;;21.48;6.65;;;1.30;99.90;;;;;;4998668;28;20100;-64
2023/12/03 11:45:52;;;;;;;21.55;7.55;;;1.50;99.90;;;;;;4980887;28;20037;-64
2023/12/03 11:48:19;;;;;;;17.75;7.10;;;1.70;99.90;;;;;;4981817;28;20105;-64
2023/12/03 11:50:46;;;;;;;26.33;9.40;;;1.60;99.90;;;;;;4981224;28;20080;-64
2023/12/03 11:53:15;;;;;;;24.13;7.68;;;1.50;99.90;;;;;;4981512;28;20118;-64
2023/12/03 11:55:44;;;;;;;19.80;7.10;;;1.50;99.90;;;;;;4998120;28;20076;-64
2023/12/03 11:58:10;;;;;;;18.70;7.60;;;1.60;99.90;;;;;;4981364;28;20026;-64
2023/12/03 12:00:37;;;;;;;15.27;6.93;;;1.70;99.90;;;;;;4981229;28;20045;-64
2023/12/03 12:03:05;;;;;;;18.15;7.93;;;1.80;99.90;;;;;;4980997;28;20030;-64
2023/12/03 12:05:31;;;;;;;19.58;6.32;;;2.00;99.90;;;;;;4980772;28;20056;-64
2023/12/03 12:07:58;;;;;;;19.77;7.30;;;2.10;99.90;;;;;;4980878;28;20022;-64
2023/12/03 12:10:24;;;;;;;19.27;7.35;;;2.30;99.90;;;;;;4980918;28;20023;-64
2023/12/03 12:12:49;;;;;;;18.17;6.60;;;2.50;99.90;;;;;;4980756;28;20058;-64
2023/12/03 12:15:15;;;;;;;15.88;6.72;;;2.60;99.90;;;;;;4980358;28;20033;-65
2023/12/03 12:17:44;;;;;;;15.38;5.90;;;2.60;99.90;;;;;;4996578;28;20026;-65
2023/12/03 12:20:10;;;;;;;15.55;6.57;;;2.60;99.90;;;;;;4996197;28;20022;-65
2023/12/03 12:22:37;;;;;;;17.70;7.00;;;2.60;99.90;;;;;;4997609;28;20098;-65
2023/12/03 12:25:04;;;;;;;13.57;5.45;;;2.80;99.90;;;;;;4980716;28;20121;-65
2023/12/03 12:27:30;;;;;;;20.10;7.25;;;2.60;99.90;;;;;;4980470;28;20028;-65
2023/12/03 12:29:55;;;;;;;14.65;6.72;;;2.60;99.90;;;;;;4997522;28;20022;-65
2023/12/03 12:32:21;;;;;;;17.85;7.07;;;2.40;99.90;;;;;;4980480;28;20113;-65
2023/12/03 12:34:47;;;;;;;19.60;6.40;;;2.20;99.90;;;;;;4980101;28;20038;-65